sensor_id;sensor_type;location;lat;lon;timestamp;temperature;humidity
9271;DHT22;4673;53.458;9.940;2023-02-12T00:02:16;6.90;99.90
9271;DHT22;4673;53.458;9.940;2023-02-12T00:04:41;6.90;99.90
9271;DHT22;4673;53.458;9.940;2023-02-12T00:07:07;6.90;99.90
9271;DHT22;4673;53.458;9.940;2023-02-12T00:09:33;6.90;99.90
9271;DHT22;4673;53.458;9.940;2023-02-12T00:11:58;6.90;99.90
9271;DHT22;4673;53.458;9.940;2023-02-12T00:14:24;6.90;99.90
9271;DHT22;4673;53.458;9.940;2023-02-12T00:16:50;6.90;99.90
9271;DHT22;4673;53.458;9.940;2023-02-12T00:19:15;6.90;99.90
9271;DHT22;4673;53.458;9.940;2023-02-12T00:21:41;7.00;99.90
9271;DHT22;4673;53.458;9.940;2023-02-12T00:24:06;7.00;99.90
9271;DHT22;4673;53.458;9.940;2023-02-12T00:26:32;6.90;99.90
9271;DHT22;4673;53.458;9.940;2023-02-12T00:29:09;6.90;99.90
9271;DHT22;4673;53.458;9.940;2023-02-12T00:31:54;6.80;99.90
9271;DHT22;4673;53.458;9.940;2023-02-12T00:34:20;6.80;99.90
9271;DHT22;4673;53.458;9.940;2023-02-12T00:36:45;6.70;99.90
9271;DHT22;4673;53.458;9.940;2023-02-12T00:39:11;6.70;99.90
9271;DHT22;4673;53.458;9.940;2023-02-12T00:41:37;6.70;99.90
9271;DHT22;4673;53.458;9.940;2023-02-12T00:44:02;6.60;99.90
9271;DHT22;4673;53.458;9.940;2023-02-12T00:46:28;6.60;99.90
9271;DHT22;4673;53.458;9.940;2023-02-12T00:48:54;6.60;99.90
9271;DHT22;4673;53.458;9.940;2023-02-12T00:51:20;6.60;99.90
9271;DHT22;4673;53.458;9.940;2023-02-12T00:53:45;6.60;99.90
9271;DHT22;4673;53.458;9.940;2023-02-12T00:56:11;6.60;99.90
9271;DHT22;4673;53.458;9.940;2023-02-12T00:58:37;6.60;99.90
9271;DHT22;4673;53.458;9.940;2023-02-12T01:01:03;6.50;99.90
9271;DHT22;4673;53.458;9.940;2023-02-12T01:03:28;6.50;99.90
9271;DHT22;4673;53.458;9.940;2023-02-12T01:05:54;6.50;99.90
9271;DHT22;4673;53.458;9.940;2023-02-12T01:08:21;6.50;99.90
9271;DHT22;4673;53.458;9.940;2023-02-12T01:10:58;6.50;99.90
9271;DHT22;4673;53.458;9.940;2023-02-12T01:13:24;6.50;99.90
9271;DHT22;4673;53.458;9.940;2023-02-12T01:16:04;6.50;99.90
9271;DHT22;4673;53.458;9.940;2023-02-12T01:18:32;6.50;99.90
9271;DHT22;4673;53.458;9.940;2023-02-12T01:20:58;6.50;99.90
9271;DHT22;4673;53.458;9.940;2023-02-12T01:23:23;6.70;99.90
9271;DHT22;4673;53.458;9.940;2023-02-12T01:25:49;6.60;99.90
9271;DHT22;4673;53.458;9.940;2023-02-12T01:28:15;6.60;99.90
9271;DHT22;4673;53.458;9.940;2023-02-12T01:30:40;6.60;99.90
9271;DHT22;4673;53.458;9.940;2023-02-12T01:33:06;6.60;99.90
9271;DHT22;4673;53.458;9.940;2023-02-12T01:35:31;6.50;99.90
9271;DHT22;4673;53.458;9.940;2023-02-12T01:37:57;6.40;99.90
9271;DHT22;4673;53.458;9.940;2023-02-12T01:40:23;6.50;99.90
9271;DHT22;4673;53.458;9.940;2023-02-12T01:42:48;6.40;99.90
9271;DHT22;4673;53.458;9.940;2023-02-12T01:47:41;6.30;99.90
9271;DHT22;4673;53.458;9.940;2023-02-12T01:50:12;6.40;99.90
9271;DHT22;4673;53.458;9.940;2023-02-12T01:52:43;6.40;99.90
9271;DHT22;4673;53.458;9.940;2023-02-12T01:55:11;6.40;99.90
9271;DHT22;4673;53.458;9.940;2023-02-12T01:57:43;6.40;99.90
9271;DHT22;4673;53.458;9.940;2023-02-12T02:00:13;6.40;99.90
9271;DHT22;4673;53.458;9.940;2023-02-12T02:02:44;6.30;99.90
9271;DHT22;4673;53.458;9.940;2023-02-12T02:05:12;6.30;99.90
9271;DHT22;4673;53.458;9.940;2023-02-12T02:07:40;6.30;99.90
9271;DHT22;4673;53.458;9.940;2023-02-12T02:10:08;6.20;99.90
9271;DHT22;4673;53.458;9.940;2023-02-12T02:12:34;6.30;99.90
9271;DHT22;4673;53.458;9.940;2023-02-12T02:15:19;6.20;99.90
9271;DHT22;4673;53.458;9.940;2023-02-12T02:20:38;6.20;99.90
9271;DHT22;4673;53.458;9.940;2023-02-12T02:35:07;6.20;99.90
9271;DHT22;4673;53.458;9.940;2023-02-12T02:39:57;6.10;99.90
9271;DHT22;4673;53.458;9.940;2023-02-12T02:42:46;6.20;99.90
9271;DHT22;4673;53.458;9.940;2023-02-12T02:48:02;6.20;99.90
9271;DHT22;4673;53.458;9.940;2023-02-12T02:50:32;6.20;99.90
9271;DHT22;4673;53.458;9.940;2023-02-12T02:53:12;6.10;99.90
9271;DHT22;4673;53.458;9.940;2023-02-12T02:55:59;6.10;99.90
9271;DHT22;4673;53.458;9.940;2023-02-12T02:58:44;6.20;99.90
9271;DHT22;4673;53.458;9.940;2023-02-12T03:01:17;6.20;99.90
9271;DHT22;4673;53.458;9.940;2023-02-12T03:06:58;6.30;99.90
9271;DHT22;4673;53.458;9.940;2023-02-12T03:09:34;6.20;99.90
9271;DHT22;4673;53.458;9.940;2023-02-12T03:12:08;6.20;99.90
9271;DHT22;4673;53.458;9.940;2023-02-12T03:14:39;6.30;99.90
9271;DHT22;4673;53.458;9.940;2023-02-12T03:17:23;6.30;99.90
9271;DHT22;4673;53.458;9.940;2023-02-12T03:19:54;6.30;99.90
9271;DHT22;4673;53.458;9.940;2023-02-12T03:22:26;6.20;99.90
9271;DHT22;4673;53.458;9.940;2023-02-12T03:24:57;6.30;99.90
9271;DHT22;4673;53.458;9.940;2023-02-12T03:27:33;6.20;99.90
9271;DHT22;4673;53.458;9.940;2023-02-12T03:30:01;6.20;99.90
9271;DHT22;4673;53.458;9.940;2023-02-12T03:35:26;6.20;99.90
9271;DHT22;4673;53.458;9.940;2023-02-12T03:37:59;6.30;99.90
9271;DHT22;4673;53.458;9.940;2023-02-12T03:40:27;6.30;99.90
9271;DHT22;4673;53.458;9.940;2023-02-12T03:53:42;6.30;99.90
9271;DHT22;4673;53.458;9.940;2023-02-12T03:56:23;6.30;99.90
9271;DHT22;4673;53.458;9.940;2023-02-12T03:58:49;6.20;99.90
9271;DHT22;4673;53.458;9.940;2023-02-12T04:01:15;6.20;99.90
9271;DHT22;4673;53.458;9.940;2023-02-12T04:03:41;6.30;99.90
9271;DHT22;4673;53.458;9.940;2023-02-12T04:08:36;6.30;99.90
9271;DHT22;4673;53.458;9.940;2023-02-12T04:16:34;6.40;99.90
9271;DHT22;4673;53.458;9.940;2023-02-12T04:19:04;6.50;99.90
9271;DHT22;4673;53.458;9.940;2023-02-12T04:24:24;6.60;99.90
9271;DHT22;4673;53.458;9.940;2023-02-12T04:27:04;6.70;99.90
9271;DHT22;4673;53.458;9.940;2023-02-12T04:32:40;6.70;99.90
9271;DHT22;4673;53.458;9.940;2023-02-12T04:35:26;6.70;99.90
9271;DHT22;4673;53.458;9.940;2023-02-12T04:38:10;6.70;99.90
9271;DHT22;4673;53.458;9.940;2023-02-12T04:40:39;6.70;99.90
9271;DHT22;4673;53.458;9.940;2023-02-12T04:43:05;6.60;99.90
9271;DHT22;4673;53.458;9.940;2023-02-12T04:45:32;6.70;99.90
9271;DHT22;4673;53.458;9.940;2023-02-12T04:47:59;6.70;99.90
9271;DHT22;4673;53.458;9.940;2023-02-12T04:50:25;6.70;99.90
9271;DHT22;4673;53.458;9.940;2023-02-12T04:52:51;6.70;99.90
9271;DHT22;4673;53.458;9.940;2023-02-12T04:55:17;6.70;99.90
9271;DHT22;4673;53.458;9.940;2023-02-12T04:57:43;6.70;99.90
9271;DHT22;4673;53.458;9.940;2023-02-12T05:00:12;6.70;99.90
9271;DHT22;4673;53.458;9.940;2023-02-12T05:02:38;6.80;99.90
9271;DHT22;4673;53.458;9.940;2023-02-12T05:05:04;6.90;99.90
9271;DHT22;4673;53.458;9.940;2023-02-12T05:07:29;6.80;99.90
9271;DHT22;4673;53.458;9.940;2023-02-12T05:09:55;6.90;99.90
9271;DHT22;4673;53.458;9.940;2023-02-12T05:12:21;6.90;99.90
9271;DHT22;4673;53.458;9.940;2023-02-12T05:14:46;6.90;99.90
9271;DHT22;4673;53.458;9.940;2023-02-12T05:17:12;6.80;99.90
9271;DHT22;4673;53.458;9.940;2023-02-12T05:19:37;6.90;99.90
9271;DHT22;4673;53.458;9.940;2023-02-12T05:22:03;6.90;99.90
9271;DHT22;4673;53.458;9.940;2023-02-12T05:24:29;6.90;99.90
9271;DHT22;4673;53.458;9.940;2023-02-12T05:26:54;6.90;99.90
9271;DHT22;4673;53.458;9.940;2023-02-12T05:29:20;6.90;99.90
9271;DHT22;4673;53.458;9.940;2023-02-12T05:31:46;6.90;99.90
9271;DHT22;4673;53.458;9.940;2023-02-12T05:34:12;6.90;99.90
9271;DHT22;4673;53.458;9.940;2023-02-12T05:36:38;6.90;99.90
9271;DHT22;4673;53.458;9.940;2023-02-12T05:39:04;7.00;99.90
9271;DHT22;4673;53.458;9.940;2023-02-12T05:41:30;7.00;99.90
9271;DHT22;4673;53.458;9.940;2023-02-12T05:43:59;6.90;99.90
9271;DHT22;4673;53.458;9.940;2023-02-12T05:46:25;7.00;99.90
9271;DHT22;4673;53.458;9.940;2023-02-12T05:48:51;7.00;99.90
9271;DHT22;4673;53.458;9.940;2023-02-12T05:51:23;7.00;99.90
9271;DHT22;4673;53.458;9.940;2023-02-12T05:53:54;7.00;99.90
9271;DHT22;4673;53.458;9.940;2023-02-12T05:56:22;7.00;99.90
9271;DHT22;4673;53.458;9.940;2023-02-12T05:58:53;7.00;99.90
9271;DHT22;4673;53.458;9.940;2023-02-12T06:01:21;7.00;99.90
9271;DHT22;4673;53.458;9.940;2023-02-12T06:03:47;7.00;99.90
9271;DHT22;4673;53.458;9.940;2023-02-12T06:06:13;7.00;99.90
9271;DHT22;4673;53.458;9.940;2023-02-12T06:08:39;7.00;99.90
9271;DHT22;4673;53.458;9.940;2023-02-12T06:11:08;7.00;99.90
9271;DHT22;4673;53.458;9.940;2023-02-12T06:13:34;7.00;99.90
9271;DHT22;4673;53.458;9.940;2023-02-12T06:16:00;7.10;99.90
9271;DHT22;4673;53.458;9.940;2023-02-12T06:18:26;7.10;99.90
9271;DHT22;4673;53.458;9.940;2023-02-12T06:20:52;7.10;99.90
9271;DHT22;4673;53.458;9.940;2023-02-12T06:23:24;7.10;99.90
9271;DHT22;4673;53.458;9.940;2023-02-12T06:25:50;7.10;99.90
9271;DHT22;4673;53.458;9.940;2023-02-12T06:28:19;7.00;99.90
9271;DHT22;4673;53.458;9.940;2023-02-12T06:30:45;7.10;99.90
9271;DHT22;4673;53.458;9.940;2023-02-12T06:33:11;7.10;99.90
9271;DHT22;4673;53.458;9.940;2023-02-12T06:35:37;7.10;99.90
9271;DHT22;4673;53.458;9.940;2023-02-12T06:38:03;7.10;99.90
9271;DHT22;4673;53.458;9.940;2023-02-12T06:40:28;7.10;99.90
9271;DHT22;4673;53.458;9.940;2023-02-12T06:42:54;7.10;99.90
9271;DHT22;4673;53.458;9.940;2023-02-12T06:45:20;7.20;99.90
9271;DHT22;4673;53.458;9.940;2023-02-12T06:47:45;7.20;99.90
9271;DHT22;4673;53.458;9.940;2023-02-12T06:50:11;7.10;99.90
9271;DHT22;4673;53.458;9.940;2023-02-12T06:52:37;7.10;99.90
9271;DHT22;4673;53.458;9.940;2023-02-12T06:55:02;7.10;99.90
9271;DHT22;4673;53.458;9.940;2023-02-12T06:57:28;7.10;99.90
9271;DHT22;4673;53.458;9.940;2023-02-12T06:59:54;7.10;99.90
9271;DHT22;4673;53.458;9.940;2023-02-12T07:02:20;7.10;99.90
9271;DHT22;4673;53.458;9.940;2023-02-12T07:04:46;7.20;99.90
9271;DHT22;4673;53.458;9.940;2023-02-12T07:07:12;7.20;99.90
9271;DHT22;4673;53.458;9.940;2023-02-12T07:09:37;7.30;99.90
9271;DHT22;4673;53.458;9.940;2023-02-12T07:12:03;7.30;99.90
9271;DHT22;4673;53.458;9.940;2023-02-12T07:14:29;7.30;99.90
9271;DHT22;4673;53.458;9.940;2023-02-12T07:16:54;7.30;99.90
9271;DHT22;4673;53.458;9.940;2023-02-12T07:19:20;7.40;99.90
9271;DHT22;4673;53.458;9.940;2023-02-12T07:21:46;7.40;99.90
9271;DHT22;4673;53.458;9.940;2023-02-12T07:24:13;7.50;99.90
9271;DHT22;4673;53.458;9.940;2023-02-12T07:26:39;7.50;99.90
9271;DHT22;4673;53.458;9.940;2023-02-12T07:29:06;7.60;99.90
9271;DHT22;4673;53.458;9.940;2023-02-12T07:31:31;7.70;99.90
9271;DHT22;4673;53.458;9.940;2023-02-12T07:33:58;7.60;99.90
9271;DHT22;4673;53.458;9.940;2023-02-12T07:36:26;7.70;99.90
9271;DHT22;4673;53.458;9.940;2023-02-12T07:38:53;7.60;99.90
9271;DHT22;4673;53.458;9.940;2023-02-12T07:41:22;7.70;99.90
9271;DHT22;4673;53.458;9.940;2023-02-12T07:43:53;7.70;99.90
9271;DHT22;4673;53.458;9.940;2023-02-12T07:46:25;7.60;99.90
9271;DHT22;4673;53.458;9.940;2023-02-12T07:48:54;7.60;99.90
9271;DHT22;4673;53.458;9.940;2023-02-12T07:51:21;7.60;99.90
9271;DHT22;4673;53.458;9.940;2023-02-12T07:53:47;7.70;99.90
9271;DHT22;4673;53.458;9.940;2023-02-12T07:56:18;7.70;99.90
9271;DHT22;4673;53.458;9.940;2023-02-12T07:58:46;7.70;99.90
9271;DHT22;4673;53.458;9.940;2023-02-12T08:01:21;7.70;99.90
9271;DHT22;4673;53.458;9.940;2023-02-12T08:03:48;7.80;99.90
9271;DHT22;4673;53.458;9.940;2023-02-12T08:08:45;7.70;99.90
9271;DHT22;4673;53.458;9.940;2023-02-12T08:11:12;7.70;99.90
9271;DHT22;4673;53.458;9.940;2023-02-12T08:13:39;7.80;99.90
9271;DHT22;4673;53.458;9.940;2023-02-12T08:16:07;7.90;99.90
9271;DHT22;4673;53.458;9.940;2023-02-12T08:18:34;7.80;99.90
9271;DHT22;4673;53.458;9.940;2023-02-12T08:21:10;7.90;99.90
9271;DHT22;4673;53.458;9.940;2023-02-12T08:23:37;7.90;99.90
9271;DHT22;4673;53.458;9.940;2023-02-12T08:26:27;7.90;99.90
9271;DHT22;4673;53.458;9.940;2023-02-12T08:31:32;7.90;99.90
9271;DHT22;4673;53.458;9.940;2023-02-12T08:33:58;7.90;99.90
9271;DHT22;4673;53.458;9.940;2023-02-12T08:36:29;8.00;99.90
9271;DHT22;4673;53.458;9.940;2023-02-12T08:38:58;8.00;99.90
9271;DHT22;4673;53.458;9.940;2023-02-12T08:41:26;8.00;99.90
9271;DHT22;4673;53.458;9.940;2023-02-12T08:43:53;8.00;99.90
9271;DHT22;4673;53.458;9.940;2023-02-12T08:46:25;8.00;99.90
9271;DHT22;4673;53.458;9.940;2023-02-12T08:48:57;7.90;99.90
9271;DHT22;4673;53.458;9.940;2023-02-12T08:51:28;7.90;99.90
9271;DHT22;4673;53.458;9.940;2023-02-12T08:54:00;8.00;99.90
9271;DHT22;4673;53.458;9.940;2023-02-12T08:56:27;8.10;99.90
9271;DHT22;4673;53.458;9.940;2023-02-12T08:58:55;8.20;99.90
9271;DHT22;4673;53.458;9.940;2023-02-12T09:01:23;8.20;99.90
9271;DHT22;4673;53.458;9.940;2023-02-12T09:03:50;8.30;99.90
9271;DHT22;4673;53.458;9.940;2023-02-12T09:06:17;8.30;99.90
9271;DHT22;4673;53.458;9.940;2023-02-12T09:08:44;8.30;99.90
9271;DHT22;4673;53.458;9.940;2023-02-12T09:11:15;8.30;99.90
9271;DHT22;4673;53.458;9.940;2023-02-12T09:13:42;8.40;99.90
9271;DHT22;4673;53.458;9.940;2023-02-12T09:16:08;8.30;99.90
9271;DHT22;4673;53.458;9.940;2023-02-12T09:18:35;8.30;99.90
9271;DHT22;4673;53.458;9.940;2023-02-12T09:21:03;8.30;99.90
9271;DHT22;4673;53.458;9.940;2023-02-12T09:23:29;8.30;99.90
9271;DHT22;4673;53.458;9.940;2023-02-12T09:25:55;8.40;99.90
9271;DHT22;4673;53.458;9.940;2023-02-12T09:28:21;8.40;99.90
9271;DHT22;4673;53.458;9.940;2023-02-12T09:30:46;8.50;99.90
9271;DHT22;4673;53.458;9.940;2023-02-12T09:33:12;8.40;99.90
9271;DHT22;4673;53.458;9.940;2023-02-12T09:35:38;8.40;99.90
9271;DHT22;4673;53.458;9.940;2023-02-12T09:38:05;8.50;99.90
9271;DHT22;4673;53.458;9.940;2023-02-12T09:43:29;8.60;99.90
9271;DHT22;4673;53.458;9.940;2023-02-12T09:46:28;8.60;99.90
9271;DHT22;4673;53.458;9.940;2023-02-12T09:51:52;8.80;99.90
9271;DHT22;4673;53.458;9.940;2023-02-12T09:54:22;8.80;99.90
9271;DHT22;4673;53.458;9.940;2023-02-12T09:56:56;9.00;99.90
9271;DHT22;4673;53.458;9.940;2023-02-12T09:59:36;9.00;99.90
9271;DHT22;4673;53.458;9.940;2023-02-12T10:02:10;9.30;99.90
9271;DHT22;4673;53.458;9.940;2023-02-12T10:04:36;9.30;99.90
9271;DHT22;4673;53.458;9.940;2023-02-12T10:07:20;9.40;99.90
9271;DHT22;4673;53.458;9.940;2023-02-12T10:18:25;9.40;99.90
9271;DHT22;4673;53.458;9.940;2023-02-12T10:26:30;9.50;99.90
9271;DHT22;4673;53.458;9.940;2023-02-12T10:29:19;9.40;99.90
9271;DHT22;4673;53.458;9.940;2023-02-12T10:32:11;9.50;99.90
9271;DHT22;4673;53.458;9.940;2023-02-12T10:34:37;9.40;99.90
9271;DHT22;4673;53.458;9.940;2023-02-12T10:40:29;9.40;99.90
9271;DHT22;4673;53.458;9.940;2023-02-12T10:42:57;9.40;99.90
9271;DHT22;4673;53.458;9.940;2023-02-12T10:45:37;9.50;99.90
9271;DHT22;4673;53.458;9.940;2023-02-12T10:48:12;9.50;99.90
9271;DHT22;4673;53.458;9.940;2023-02-12T10:53:14;9.40;99.90
9271;DHT22;4673;53.458;9.940;2023-02-12T10:55:41;9.40;99.90
9271;DHT22;4673;53.458;9.940;2023-02-12T10:58:20;9.50;99.90
9271;DHT22;4673;53.458;9.940;2023-02-12T11:00:46;9.50;99.90
9271;DHT22;4673;53.458;9.940;2023-02-12T11:03:21;9.60;99.90
9271;DHT22;4673;53.458;9.940;2023-02-12T11:05:48;9.60;99.90
9271;DHT22;4673;53.458;9.940;2023-02-12T11:08:33;9.50;99.90
9271;DHT22;4673;53.458;9.940;2023-02-12T11:14:17;9.30;99.90
9271;DHT22;4673;53.458;9.940;2023-02-12T11:19:27;9.30;99.90
9271;DHT22;4673;53.458;9.940;2023-02-12T11:22:12;9.20;99.90
9271;DHT22;4673;53.458;9.940;2023-02-12T11:24:44;9.20;99.90
9271;DHT22;4673;53.458;9.940;2023-02-12T11:29:45;9.00;99.90
9271;DHT22;4673;53.458;9.940;2023-02-12T11:32:17;9.10;99.90
9271;DHT22;4673;53.458;9.940;2023-02-12T11:34:43;9.20;99.90
9271;DHT22;4673;53.458;9.940;2023-02-12T11:37:17;9.20;99.90
9271;DHT22;4673;53.458;9.940;2023-02-12T11:39:48;9.30;99.90
9271;DHT22;4673;53.458;9.940;2023-02-12T11:42:23;9.30;99.90
9271;DHT22;4673;53.458;9.940;2023-02-12T11:44:53;9.30;99.90
9271;DHT22;4673;53.458;9.940;2023-02-12T11:47:31;9.30;99.90
9271;DHT22;4673;53.458;9.940;2023-02-12T11:52:33;9.50;99.90
9271;DHT22;4673;53.458;9.940;2023-02-12T11:55:04;9.60;99.90
9271;DHT22;4673;53.458;9.940;2023-02-12T12:00:12;9.80;99.90
9271;DHT22;4673;53.458;9.940;2023-02-12T12:02:44;9.90;99.90
9271;DHT22;4673;53.458;9.940;2023-02-12T12:05:15;10.10;99.90
9271;DHT22;4673;53.458;9.940;2023-02-12T12:07:55;10.30;99.90
9271;DHT22;4673;53.458;9.940;2023-02-12T12:10:41;10.50;99.90
9271;DHT22;4673;53.458;9.940;2023-02-12T12:13:18;10.40;99.90
9271;DHT22;4673;53.458;9.940;2023-02-12T12:15:49;10.40;99.90
9271;DHT22;4673;53.458;9.940;2023-02-12T12:18:45;10.40;99.90
9271;DHT22;4673;53.458;9.940;2023-02-12T12:21:59;10.30;99.40
9271;DHT22;4673;53.458;9.940;2023-02-12T12:24:45;10.00;99.20
9271;DHT22;4673;53.458;9.940;2023-02-12T12:27:21;10.10;99.90
9271;DHT22;4673;53.458;9.940;2023-02-12T12:30:20;10.10;99.90
9271;DHT22;4673;53.458;9.940;2023-02-12T12:32:48;10.00;99.80
9271;DHT22;4673;53.458;9.940;2023-02-12T12:35:17;10.10;99.90
9271;DHT22;4673;53.458;9.940;2023-02-12T12:38:12;10.10;99.90
9271;DHT22;4673;53.458;9.940;2023-02-12T12:41:08;10.20;99.90
9271;DHT22;4673;53.458;9.940;2023-02-12T12:43:49;10.20;99.90
9271;DHT22;4673;53.458;9.940;2023-02-12T12:46:33;10.30;99.90
9271;DHT22;4673;53.458;9.940;2023-02-12T12:55:29;10.30;99.90
9271;DHT22;4673;53.458;9.940;2023-02-12T12:58:17;10.30;99.70
9271;DHT22;4673;53.458;9.940;2023-02-12T13:15:36;10.00;99.70
9271;DHT22;4673;53.458;9.940;2023-02-12T13:21:14;9.70;99.90
9271;DHT22;4673;53.458;9.940;2023-02-12T13:23:53;9.60;99.90
9271;DHT22;4673;53.458;9.940;2023-02-12T13:26:47;9.60;99.90
9271;DHT22;4673;53.458;9.940;2023-02-12T13:29:26;9.60;99.90
9271;DHT22;4673;53.458;9.940;2023-02-12T13:32:06;9.50;99.90
9271;DHT22;4673;53.458;9.940;2023-02-12T13:34:38;9.50;99.90
9271;DHT22;4673;53.458;9.940;2023-02-12T13:37:05;9.50;99.90
9271;DHT22;4673;53.458;9.940;2023-02-12T13:39:39;9.40;99.90
9271;DHT22;4673;53.458;9.940;2023-02-12T13:42:13;9.40;99.90
9271;DHT22;4673;53.458;9.940;2023-02-12T13:55:36;9.10;99.90
9271;DHT22;4673;53.458;9.940;2023-02-12T14:03:26;9.10;99.90
9271;DHT22;4673;53.458;9.940;2023-02-12T14:06:14;9.10;99.90
9271;DHT22;4673;53.458;9.940;2023-02-12T14:08:47;9.20;99.90
9271;DHT22;4673;53.458;9.940;2023-02-12T14:11:18;9.30;99.90
9271;DHT22;4673;53.458;9.940;2023-02-12T14:13:54;9.40;99.90
9271;DHT22;4673;53.458;9.940;2023-02-12T14:20:19;9.30;99.90
9271;DHT22;4673;53.458;9.940;2023-02-12T14:27:56;9.40;99.90
9271;DHT22;4673;53.458;9.940;2023-02-12T14:30:34;9.40;99.90
9271;DHT22;4673;53.458;9.940;2023-02-12T14:43:34;9.30;99.90
9271;DHT22;4673;53.458;9.940;2023-02-12T14:49:02;9.30;99.90
9271;DHT22;4673;53.458;9.940;2023-02-12T14:51:50;9.50;99.90
9271;DHT22;4673;53.458;9.940;2023-02-12T14:54:43;9.20;99.90
9271;DHT22;4673;53.458;9.940;2023-02-12T15:00:05;9.20;99.90
9271;DHT22;4673;53.458;9.940;2023-02-12T15:02:48;9.00;99.90
9271;DHT22;4673;53.458;9.940;2023-02-12T15:05:23;9.00;99.90
9271;DHT22;4673;53.458;9.940;2023-02-12T15:08:06;9.00;99.90
9271;DHT22;4673;53.458;9.940;2023-02-12T15:10:45;8.90;99.90
9271;DHT22;4673;53.458;9.940;2023-02-12T15:13:17;9.00;99.90
9271;DHT22;4673;53.458;9.940;2023-02-12T15:18:23;9.00;99.90
9271;DHT22;4673;53.458;9.940;2023-02-12T15:23:43;9.00;99.90
9271;DHT22;4673;53.458;9.940;2023-02-12T15:26:17;9.00;99.90
9271;DHT22;4673;53.458;9.940;2023-02-12T15:28:50;8.80;99.90
9271;DHT22;4673;53.458;9.940;2023-02-12T15:31:19;8.70;99.90
9271;DHT22;4673;53.458;9.940;2023-02-12T15:33:48;8.70;99.90
9271;DHT22;4673;53.458;9.940;2023-02-12T15:36:18;8.70;99.90
9271;DHT22;4673;53.458;9.940;2023-02-12T15:38:48;8.60;99.90
9271;DHT22;4673;53.458;9.940;2023-02-12T15:41:43;8.70;99.90
9271;DHT22;4673;53.458;9.940;2023-02-12T15:44:24;8.80;99.90
9271;DHT22;4673;53.458;9.940;2023-02-12T15:49:31;8.80;99.90
9271;DHT22;4673;53.458;9.940;2023-02-12T15:51:58;8.70;99.90
9271;DHT22;4673;53.458;9.940;2023-02-12T15:54:24;8.70;99.90
9271;DHT22;4673;53.458;9.940;2023-02-12T15:56:52;8.50;99.90
9271;DHT22;4673;53.458;9.940;2023-02-12T15:59:26;8.50;99.90
9271;DHT22;4673;53.458;9.940;2023-02-12T16:02:02;8.40;99.90
9271;DHT22;4673;53.458;9.940;2023-02-12T16:04:33;8.30;99.90
9271;DHT22;4673;53.458;9.940;2023-02-12T16:09:32;8.30;99.90
9271;DHT22;4673;53.458;9.940;2023-02-12T16:12:03;8.40;99.90
9271;DHT22;4673;53.458;9.940;2023-02-12T16:14:41;8.40;99.90
9271;DHT22;4673;53.458;9.940;2023-02-12T16:17:31;8.50;99.90
9271;DHT22;4673;53.458;9.940;2023-02-12T16:19:59;8.50;99.90
9271;DHT22;4673;53.458;9.940;2023-02-12T16:22:32;8.40;99.90
9271;DHT22;4673;53.458;9.940;2023-02-12T16:24:59;8.50;99.90
9271;DHT22;4673;53.458;9.940;2023-02-12T16:27:33;8.40;99.90
9271;DHT22;4673;53.458;9.940;2023-02-12T16:30:06;8.40;99.90
9271;DHT22;4673;53.458;9.940;2023-02-12T16:32:38;8.40;99.90
9271;DHT22;4673;53.458;9.940;2023-02-12T16:50:27;8.20;99.90
9271;DHT22;4673;53.458;9.940;2023-02-12T16:53:03;8.10;99.90
9271;DHT22;4673;53.458;9.940;2023-02-12T16:55:28;8.10;99.90
9271;DHT22;4673;53.458;9.940;2023-02-12T16:57:54;8.10;99.90
9271;DHT22;4673;53.458;9.940;2023-02-12T17:00:20;8.00;99.90
9271;DHT22;4673;53.458;9.940;2023-02-12T17:02:47;8.10;99.90
9271;DHT22;4673;53.458;9.940;2023-02-12T17:05:14;8.10;99.90
9271;DHT22;4673;53.458;9.940;2023-02-12T17:07:42;8.10;99.90
9271;DHT22;4673;53.458;9.940;2023-02-12T17:10:12;8.10;99.90
9271;DHT22;4673;53.458;9.940;2023-02-12T17:12:49;8.10;99.90
9271;DHT22;4673;53.458;9.940;2023-02-12T17:15:27;8.10;99.90
9271;DHT22;4673;53.458;9.940;2023-02-12T17:17:54;8.10;99.90
9271;DHT22;4673;53.458;9.940;2023-02-12T17:20:20;8.00;99.90
9271;DHT22;4673;53.458;9.940;2023-02-12T17:22:50;8.00;99.90
9271;DHT22;4673;53.458;9.940;2023-02-12T17:25:17;8.00;99.90
9271;DHT22;4673;53.458;9.940;2023-02-12T17:27:42;8.00;99.90
9271;DHT22;4673;53.458;9.940;2023-02-12T17:30:13;8.00;99.90
9271;DHT22;4673;53.458;9.940;2023-02-12T17:32:39;8.00;99.90
9271;DHT22;4673;53.458;9.940;2023-02-12T17:35:05;8.00;99.90
9271;DHT22;4673;53.458;9.940;2023-02-12T17:37:31;7.90;99.90
9271;DHT22;4673;53.458;9.940;2023-02-12T17:39:57;7.90;99.90
9271;DHT22;4673;53.458;9.940;2023-02-12T17:42:22;7.90;99.90
9271;DHT22;4673;53.458;9.940;2023-02-12T17:44:48;8.10;99.90
9271;DHT22;4673;53.458;9.940;2023-02-12T17:47:14;7.80;99.90
9271;DHT22;4673;53.458;9.940;2023-02-12T17:49:39;7.90;99.90
9271;DHT22;4673;53.458;9.940;2023-02-12T17:52:06;7.90;99.90
9271;DHT22;4673;53.458;9.940;2023-02-12T17:54:32;7.80;99.90
9271;DHT22;4673;53.458;9.940;2023-02-12T17:56:57;7.80;99.90
9271;DHT22;4673;53.458;9.940;2023-02-12T17:59:23;7.80;99.90
9271;DHT22;4673;53.458;9.940;2023-02-12T18:01:48;7.80;99.90
9271;DHT22;4673;53.458;9.940;2023-02-12T18:04:14;7.80;99.90
9271;DHT22;4673;53.458;9.940;2023-02-12T18:06:40;7.80;99.90
9271;DHT22;4673;53.458;9.940;2023-02-12T18:09:05;7.80;99.90
9271;DHT22;4673;53.458;9.940;2023-02-12T18:11:31;7.70;99.90
9271;DHT22;4673;53.458;9.940;2023-02-12T18:13:58;7.70;99.90
9271;DHT22;4673;53.458;9.940;2023-02-12T18:16:27;7.70;99.90
9271;DHT22;4673;53.458;9.940;2023-02-12T18:18:53;7.70;99.90
9271;DHT22;4673;53.458;9.940;2023-02-12T18:21:19;7.70;99.90
9271;DHT22;4673;53.458;9.940;2023-02-12T18:23:45;7.70;99.90
9271;DHT22;4673;53.458;9.940;2023-02-12T18:26:14;7.70;99.90
9271;DHT22;4673;53.458;9.940;2023-02-12T18:28:40;7.70;99.90
9271;DHT22;4673;53.458;9.940;2023-02-12T18:31:07;7.60;99.90
9271;DHT22;4673;53.458;9.940;2023-02-12T18:33:33;7.60;99.90
9271;DHT22;4673;53.458;9.940;2023-02-12T18:36:09;7.70;99.90
9271;DHT22;4673;53.458;9.940;2023-02-12T18:38:36;7.60;99.90
9271;DHT22;4673;53.458;9.940;2023-02-12T18:41:26;7.60;99.90
9271;DHT22;4673;53.458;9.940;2023-02-12T18:43:52;7.60;99.90
9271;DHT22;4673;53.458;9.940;2023-02-12T18:46:24;7.70;99.90
9271;DHT22;4673;53.458;9.940;2023-02-12T18:48:50;7.60;99.90
9271;DHT22;4673;53.458;9.940;2023-02-12T18:51:20;7.60;99.90
9271;DHT22;4673;53.458;9.940;2023-02-12T18:53:57;7.60;99.90
9271;DHT22;4673;53.458;9.940;2023-02-12T18:56:26;7.60;99.90
9271;DHT22;4673;53.458;9.940;2023-02-12T18:58:57;7.60;99.90
9271;DHT22;4673;53.458;9.940;2023-02-12T19:01:23;7.60;99.90
9271;DHT22;4673;53.458;9.940;2023-02-12T19:03:52;7.60;99.90
9271;DHT22;4673;53.458;9.940;2023-02-12T19:06:19;7.60;99.90
9271;DHT22;4673;53.458;9.940;2023-02-12T19:08:45;7.60;99.90
9271;DHT22;4673;53.458;9.940;2023-02-12T19:11:11;7.50;99.90
9271;DHT22;4673;53.458;9.940;2023-02-12T19:13:37;7.50;99.90
9271;DHT22;4673;53.458;9.940;2023-02-12T19:16:08;7.40;99.90
9271;DHT22;4673;53.458;9.940;2023-02-12T19:18:34;7.50;99.90
9271;DHT22;4673;53.458;9.940;2023-02-12T19:21:07;7.40;99.90
9271;DHT22;4673;53.458;9.940;2023-02-12T19:23:33;7.50;99.90
9271;DHT22;4673;53.458;9.940;2023-02-12T19:26:15;7.40;99.90
9271;DHT22;4673;53.458;9.940;2023-02-12T19:28:41;7.40;99.90
9271;DHT22;4673;53.458;9.940;2023-02-12T19:33:40;7.40;99.90
9271;DHT22;4673;53.458;9.940;2023-02-12T19:36:07;7.40;99.90
9271;DHT22;4673;53.458;9.940;2023-02-12T19:38:34;7.50;99.90
9271;DHT22;4673;53.458;9.940;2023-02-12T19:41:04;7.50;99.90
9271;DHT22;4673;53.458;9.940;2023-02-12T19:43:30;7.50;99.90
9271;DHT22;4673;53.458;9.940;2023-02-12T19:46:04;7.50;99.90
9271;DHT22;4673;53.458;9.940;2023-02-12T19:48:30;7.50;99.90
9271;DHT22;4673;53.458;9.940;2023-02-12T19:50:56;7.50;99.90